CN42 weather

Double Creek Ranch Airport
Manton, California, United States

Public forecast

Using degrees Fahrenheit for public forecast. Weather courtesy of forecast.io.

Closest aviation weather report (METAR) to Double Creek Ranch Airport

Closest report is Redding Municipal Airport, 19.2 nm (35.5 km) WNW. Retrieved 2019/10/14 18:53 UTC (11 minutes ago):

KRDD 141853Z 35004KT 10SM CLR 24/M03 A2994 RMK AO2 SLP135 T02391033

Closest aviation forecast (TAF) to Double Creek Ranch Airport

Closest forecast is Redding Municipal Airport, 19.2 nm (35.5 km) WNW. Retrieved 2019/10/14 18:33 UTC (31 minutes ago):

TAF KRDD 141731Z 1418/1518 VRB04KT P6SM SKC